Time;durP1;ratioP1;P1;durP2;ratioP2;P2;SDS_P1;SDS_P2;PMS_P1;PMS_P2;Temp;Humidity;BMP_temperature;BMP_pressure;BME280_temperature;BME280_humidity;BME280_pressure;Samples;Min_cycle;Max_cycle;Signal;HPM_P1;HPM_P2
2022/12/05 00:00:46;;;;;;;25.65;15.98;;;;;;;;;;5089892;28;20047;-72
2022/12/05 00:03:12;;;;;;;28.23;16.83;;;;;;;;;;5093628;28;20050;-73
2022/12/05 00:05:41;;;;;;;25.35;16.10;;;;;;;;;;5093869;28;20077;-72
2022/12/05 00:08:07;;;;;;;31.27;16.73;;;;;;;;;;5089858;28;20529;-72
2022/12/05 00:10:37;;;;;;;28.33;17.27;;;;;;;;;;5089889;28;20083;-73
2022/12/05 00:13:03;;;;;;;23.60;15.30;;;;;;;;;;5095219;28;20489;-72
2022/12/05 00:15:29;;;;;;;27.42;17.92;;;;;;;;;;5076923;28;20048;-72
2022/12/05 00:17:55;;;;;;;30.25;17.95;;;;;;;;;;5097024;28;20044;-73
2022/12/05 00:20:21;;;;;;;28.17;16.45;;;;;;;;;;5097146;28;20474;-72
2022/12/05 00:22:47;;;;;;;24.05;15.25;;;;;;;;;;5090101;28;20093;-73
2022/12/05 00:25:13;;;;;;;27.83;14.75;;;;;;;;;;5095982;28;20128;-73
2022/12/05 00:27:40;;;;;;;25.92;15.70;;;;;;;;;;5094814;28;20110;-73
2022/12/05 00:30:07;;;;;;;23.67;15.95;;;;;;;;;;5101929;28;20047;-73
2022/12/05 00:32:33;;;;;;;21.02;13.80;;;;;;;;;;5095452;28;20036;-72
2022/12/05 00:34:59;;;;;;;23.98;14.88;;;;;;;;;;5120730;28;20051;-73
2022/12/05 00:37:25;;;;;;;20.77;14.95;;;;;;;;;;5103437;28;20043;-72
2022/12/05 00:39:51;;;;;;;23.85;15.07;;;;;;;;;;5122303;28;20036;-73
2022/12/05 00:42:17;;;;;;;25.42;14.35;;;;;;;;;;5106519;28;20085;-73
2022/12/05 00:44:44;;;;;;;25.80;14.32;;;;;;;;;;5130326;27;20129;-73
2022/12/05 00:47:10;;;;;;;25.08;15.05;;;;;;;;;;5127552;27;20039;-73
2022/12/05 00:49:36;;;;;;;28.65;16.05;;;;;;;;;;5127856;27;20035;-72
2022/12/05 00:52:02;;;;;;;26.60;16.13;;;;;;;;;;5110874;27;20104;-73
2022/12/05 00:54:28;;;;;;;26.27;15.43;;;;;;;;;;5127009;27;20408;-72
2022/12/05 00:56:55;;;;;;;24.33;14.70;;;;;;;;;;5128888;27;20500;-72
2022/12/05 00:59:21;;;;;;;25.05;15.63;;;;;;;;;;5131852;27;20090;-73
2022/12/05 01:01:49;;;;;;;27.52;15.90;;;;;;;;;;5123958;27;20031;-73
2022/12/05 01:04:16;;;;;;;26.58;15.98;;;;;;;;;;5095238;27;20522;-73
2022/12/05 01:06:43;;;;;;;28.35;16.05;;;;;;;;;;5094829;27;20046;-73
2022/12/05 01:09:11;;;;;;;26.08;16.73;;;;;;;;;;5112985;27;20650;-73
2022/12/05 01:11:37;;;;;;;24.98;16.75;;;;;;;;;;5111202;27;20039;-72
2022/12/05 01:14:03;;;;;;;27.02;16.20;;;;;;;;;;5112434;27;20718;-73
2022/12/05 01:16:32;;;;;;;24.90;16.70;;;;;;;;;;5124410;27;20034;-73
2022/12/05 01:18:58;;;;;;;26.08;16.33;;;;;;;;;;5107368;28;20512;-73
2022/12/05 01:21:25;;;;;;;27.88;16.98;;;;;;;;;;5125613;27;20042;-73
2022/12/05 01:23:51;;;;;;;30.73;16.17;;;;;;;;;;5113036;27;20043;-72
2022/12/05 01:26:18;;;;;;;26.90;15.13;;;;;;;;;;5124166;27;20038;-72
2022/12/05 01:28:45;;;;;;;29.15;17.70;;;;;;;;;;5119815;27;20143;-73
2022/12/05 01:31:34;;;;;;;23.75;14.68;;;;;;;;;;5107381;27;20043;-72
2022/12/05 01:34:01;;;;;;;26.02;14.68;;;;;;;;;;5121282;27;20443;-72
2022/12/05 01:36:28;;;;;;;22.80;14.02;;;;;;;;;;5130490;27;20043;-73
2022/12/05 01:38:55;;;;;;;22.98;14.57;;;;;;;;;;5112754;27;20077;-73
2022/12/05 01:41:26;;;;;;;28.45;16.25;;;;;;;;;;5130532;27;20043;-73
2022/12/05 01:44:12;;;;;;;20.88;14.57;;;;;;;;;;5125367;27;20640;-74
2022/12/05 01:46:39;;;;;;;24.70;15.73;;;;;;;;;;5102070;27;20296;-73
2022/12/05 01:49:05;;;;;;;23.65;14.98;;;;;;;;;;5129515;27;20039;-73
2022/12/05 01:51:33;;;;;;;31.77;16.23;;;;;;;;;;5109111;27;20075;-73
2022/12/05 01:53:59;;;;;;;20.23;13.77;;;;;;;;;;5124853;27;20100;-74
2022/12/05 01:56:28;;;;;;;22.63;14.45;;;;;;;;;;5130332;27;20031;-73
2022/12/05 01:58:55;;;;;;;24.92;15.25;;;;;;;;;;5119063;27;20032;-72
2022/12/05 02:01:21;;;;;;;24.85;14.13;;;;;;;;;;5110259;28;20123;-73
2022/12/05 02:03:49;;;;;;;28.92;15.27;;;;;;;;;;5096024;27;20408;-72
2022/12/05 02:06:16;;;;;;;22.20;14.13;;;;;;;;;;5127045;27;20105;-73
2022/12/05 02:08:42;;;;;;;23.85;14.60;;;;;;;;;;5118262;27;20054;-73
2022/12/05 02:11:09;;;;;;;20.15;13.68;;;;;;;;;;5129040;27;20035;-73
2022/12/05 02:13:53;;;;;;;23.38;14.75;;;;;;;;;;5127515;27;20089;-73
2022/12/05 02:16:32;;;;;;;20.55;12.40;;;;;;;;;;5127534;27;20038;-73
2022/12/05 02:19:04;;;;;;;19.20;11.80;;;;;;;;;;5124839;27;20411;-73
2022/12/05 02:21:39;;;;;;;17.70;11.07;;;;;;;;;;5127065;27;20046;-72
2022/12/05 02:24:08;;;;;;;16.73;10.23;;;;;;;;;;5129748;27;20039;-73
2022/12/05 02:26:37;;;;;;;19.17;10.88;;;;;;;;;;5125351;27;20031;-73
2022/12/05 02:29:03;;;;;;;20.17;11.10;;;;;;;;;;5125228;27;20374;-74
2022/12/05 02:31:29;;;;;;;18.70;10.85;;;;;;;;;;5116311;27;20039;-73
2022/12/05 02:34:02;;;;;;;15.32;9.68;;;;;;;;;;5121401;27;20075;-73
2022/12/05 02:37:07;;;;;;;16.10;10.77;;;;;;;;;;5108064;28;20050;-73
2022/12/05 02:39:55;;;;;;;16.70;9.13;;;;;;;;;;5012114;28;20060;-72
2022/12/05 02:42:27;;;;;;;13.90;9.05;;;;;;;;;;5019301;28;20048;-73
2022/12/05 02:44:55;;;;;;;14.45;9.05;;;;;;;;;;5083332;27;20125;-74
2022/12/05 02:47:24;;;;;;;15.57;9.38;;;;;;;;;;5104732;28;20066;-73
2022/12/05 02:49:53;;;;;;;14.18;9.23;;;;;;;;;;5123795;27;20035;-73
2022/12/05 02:52:19;;;;;;;16.25;7.57;;;;;;;;;;5110985;27;20039;-73
2022/12/05 02:54:47;;;;;;;12.48;8.40;;;;;;;;;;5127474;27;20054;-72
2022/12/05 02:57:15;;;;;;;12.32;7.25;;;;;;;;;;5109393;27;20070;-73
2022/12/05 02:59:41;;;;;;;12.57;6.85;;;;;;;;;;5111975;27;20051;-73
2022/12/05 03:02:08;;;;;;;14.43;7.22;;;;;;;;;;5126990;27;20079;-73
2022/12/05 03:04:34;;;;;;;8.70;5.85;;;;;;;;;;5124902;27;20728;-73
2022/12/05 03:07:04;;;;;;;12.32;7.53;;;;;;;;;;5126066;27;20047;-73
2022/12/05 03:09:30;;;;;;;14.90;8.00;;;;;;;;;;5113630;27;20046;-73
2022/12/05 03:12:05;;;;;;;9.30;6.38;;;;;;;;;;5121665;27;20035;-73
2022/12/05 03:14:34;;;;;;;18.75;7.18;;;;;;;;;;5109686;27;20481;-73
2022/12/05 03:17:02;;;;;;;10.88;7.20;;;;;;;;;;5111920;27;20504;-73
2022/12/05 03:19:48;;;;;;;11.90;6.93;;;;;;;;;;5126361;27;20084;-73
2022/12/05 03:22:25;;;;;;;12.73;7.13;;;;;;;;;;5128038;27;20519;-73
2022/12/05 03:24:51;;;;;;;13.15;7.35;;;;;;;;;;5120630;27;20126;-73
2022/12/05 03:27:25;;;;;;;9.27;6.82;;;;;;;;;;5120626;27;20097;-72
2022/12/05 03:29:55;;;;;;;11.23;7.40;;;;;;;;;;5120711;27;20039;-72
2022/12/05 03:32:30;;;;;;;14.95;6.70;;;;;;;;;;5110677;27;20035;-73
2022/12/05 03:35:02;;;;;;;14.25;7.20;;;;;;;;;;5104141;28;20092;-73
2022/12/05 03:37:41;;;;;;;9.48;6.53;;;;;;;;;;5122321;27;20136;-72
2022/12/05 03:40:13;;;;;;;14.88;6.32;;;;;;;;;;5121017;27;20039;-73
2022/12/05 03:42:42;;;;;;;11.27;6.30;;;;;;;;;;5098505;27;20036;-72
2022/12/05 03:45:15;;;;;;;12.82;7.25;;;;;;;;;;5124822;27;20177;-72
2022/12/05 03:48:04;;;;;;;13.07;6.70;;;;;;;;;;5119923;27;20038;-73
2022/12/05 03:50:30;;;;;;;12.38;7.47;;;;;;;;;;5125612;27;20042;-73
2022/12/05 03:53:19;;;;;;;18.50;7.30;;;;;;;;;;5127853;27;20042;-72
2022/12/05 03:55:48;;;;;;;10.82;6.63;;;;;;;;;;5088461;28;20150;-73
2022/12/05 03:58:18;;;;;;;15.73;7.00;;;;;;;;;;5104743;28;20534;-72
2022/12/05 04:00:46;;;;;;;16.17;6.68;;;;;;;;;;5110218;28;20039;-73
2022/12/05 04:03:38;;;;;;;12.15;6.80;;;;;;;;;;5122971;28;20075;-72
2022/12/05 04:06:09;;;;;;;11.73;6.75;;;;;;;;;;5108449;28;20072;-72
2022/12/05 04:08:36;;;;;;;11.70;6.70;;;;;;;;;;5122357;28;20506;-72
2022/12/05 04:11:06;;;;;;;13.68;7.30;;;;;;;;;;5105859;28;20040;-72
2022/12/05 04:13:40;;;;;;;14.90;6.50;;;;;;;;;;5125651;28;20484;-72
2022/12/05 04:19:25;;;;;;;12.10;6.90;;;;;;;;;;5112301;27;20058;-73
2022/12/05 04:21:53;;;;;;;14.82;7.18;;;;;;;;;;5081905;27;20058;-72
2022/12/05 04:27:26;;;;;;;11.07;7.53;;;;;;;;;;5125828;27;20095;-73
2022/12/05 04:30:03;;;;;;;15.05;8.90;;;;;;;;;;5123471;27;20047;-72
2022/12/05 04:32:42;;;;;;;13.70;8.10;;;;;;;;;;5120682;27;20175;-73
2022/12/05 04:35:18;;;;;;;13.38;7.22;;;;;;;;;;5105929;28;20138;-72
2022/12/05 04:37:49;;;;;;;10.98;8.55;;;;;;;;;;5103492;28;20118;-73
2022/12/05 04:40:37;;;;;;;12.90;8.20;;;;;;;;;;5107798;28;20043;-72
2022/12/05 04:43:03;;;;;;;13.90;8.20;;;;;;;;;;5110427;28;20134;-73
2022/12/05 04:45:30;;;;;;;13.02;8.55;;;;;;;;;;5111830;28;20441;-73
2022/12/05 04:48:01;;;;;;;17.77;9.90;;;;;;;;;;5108960;28;20035;-71
2022/12/05 04:50:28;;;;;;;15.13;8.32;;;;;;;;;;5109270;28;20119;-73
2022/12/05 04:52:56;;;;;;;15.38;9.02;;;;;;;;;;5106428;28;20040;-72
2022/12/05 04:55:27;;;;;;;15.70;9.10;;;;;;;;;;5107164;28;20445;-73
2022/12/05 04:57:58;;;;;;;17.35;10.13;;;;;;;;;;5110270;28;20508;-72
2022/12/05 05:00:24;;;;;;;14.20;8.80;;;;;;;;;;5110337;28;20088;-73
2022/12/05 05:02:53;;;;;;;13.20;8.23;;;;;;;;;;5109575;28;20444;-72
2022/12/05 05:05:20;;;;;;;15.88;9.45;;;;;;;;;;5104381;28;20044;-73
2022/12/05 05:07:48;;;;;;;13.68;8.98;;;;;;;;;;5102986;28;20039;-73
2022/12/05 05:10:16;;;;;;;14.90;8.85;;;;;;;;;;5106936;28;20077;-73
2022/12/05 05:12:42;;;;;;;13.45;8.18;;;;;;;;;;5110959;28;20036;-73
2022/12/05 05:15:08;;;;;;;14.15;8.27;;;;;;;;;;5110431;28;20033;-73
2022/12/05 05:17:37;;;;;;;14.82;8.20;;;;;;;;;;5109491;28;20126;-73
2022/12/05 05:20:22;;;;;;;13.35;8.93;;;;;;;;;;5105008;28;20043;-73
2022/12/05 05:22:49;;;;;;;16.67;8.57;;;;;;;;;;5106190;28;20160;-73
2022/12/05 05:25:15;;;;;;;16.75;9.35;;;;;;;;;;5103073;28;20401;-73
2022/12/05 05:27:41;;;;;;;20.00;9.10;;;;;;;;;;5108922;28;20024;-72
2022/12/05 05:30:08;;;;;;;16.13;9.43;;;;;;;;;;5100675;28;20616;-73
2022/12/05 05:32:35;;;;;;;15.18;8.18;;;;;;;;;;5100546;28;20035;-73
2022/12/05 05:35:01;;;;;;;14.73;9.77;;;;;;;;;;5102175;28;20044;-73
2022/12/05 05:37:27;;;;;;;16.05;9.07;;;;;;;;;;5107390;28;20053;-73
2022/12/05 05:39:53;;;;;;;17.63;8.43;;;;;;;;;;5092518;28;20047;-73
2022/12/05 05:42:19;;;;;;;14.20;9.10;;;;;;;;;;5093352;28;20028;-73
2022/12/05 05:44:46;;;;;;;15.82;8.20;;;;;;;;;;5095344;28;20072;-72
2022/12/05 05:47:12;;;;;;;10.68;8.45;;;;;;;;;;5099494;28;20509;-73
2022/12/05 05:49:38;;;;;;;26.38;9.38;;;;;;;;;;5092371;28;20036;-73
2022/12/05 05:52:04;;;;;;;13.27;8.07;;;;;;;;;;5094299;28;20481;-73
2022/12/05 05:54:30;;;;;;;11.48;6.47;;;;;;;;;;5092347;28;20049;-72
2022/12/05 05:56:57;;;;;;;16.45;6.85;;;;;;;;;;5097449;28;20040;-73
2022/12/05 05:59:23;;;;;;;11.18;7.15;;;;;;;;;;5089806;28;20043;-73
2022/12/05 06:01:49;;;;;;;13.35;7.75;;;;;;;;;;5089613;28;20048;-72
2022/12/05 06:04:15;;;;;;;14.65;7.72;;;;;;;;;;5090970;28;20123;-73
2022/12/05 06:06:41;;;;;;;15.48;8.18;;;;;;;;;;5089123;28;20501;-72
2022/12/05 06:09:07;;;;;;;12.20;7.20;;;;;;;;;;5091068;28;20032;-72
2022/12/05 06:11:33;;;;;;;11.48;7.63;;;;;;;;;;5088295;28;20145;-72
2022/12/05 06:14:00;;;;;;;12.73;8.02;;;;;;;;;;5070884;28;20093;-72
2022/12/05 06:16:27;;;;;;;17.52;7.45;;;;;;;;;;5091025;28;20130;-72
2022/12/05 06:18:53;;;;;;;11.35;7.20;;;;;;;;;;5087048;28;20051;-73
2022/12/05 06:21:20;;;;;;;16.13;9.15;;;;;;;;;;5088980;28;20128;-73
2022/12/05 06:23:46;;;;;;;18.02;8.43;;;;;;;;;;5092994;28;20042;-72
2022/12/05 06:26:14;;;;;;;11.75;7.78;;;;;;;;;;5089236;28;20432;-72
2022/12/05 06:28:40;;;;;;;14.35;7.05;;;;;;;;;;5094596;28;20123;-73
2022/12/05 06:31:07;;;;;;;13.82;7.63;;;;;;;;;;5095247;28;20031;-73
2022/12/05 06:33:33;;;;;;;13.13;7.30;;;;;;;;;;5096885;27;20039;-72
2022/12/05 06:36:10;;;;;;;10.65;7.38;;;;;;;;;;5119812;27;20040;-72
2022/12/05 06:38:37;;;;;;;9.35;6.00;;;;;;;;;;5126400;27;20042;-72
2022/12/05 06:41:06;;;;;;;12.45;7.63;;;;;;;;;;5117460;27;20396;-72
2022/12/05 06:43:32;;;;;;;11.10;6.63;;;;;;;;;;5117429;27;20044;-73
2022/12/05 06:45:59;;;;;;;14.23;7.25;;;;;;;;;;5126720;27;20035;-72
2022/12/05 06:48:25;;;;;;;13.00;8.15;;;;;;;;;;5120656;27;20092;-73
2022/12/05 06:50:52;;;;;;;10.93;6.78;;;;;;;;;;5127135;27;20131;-73
2022/12/05 06:53:19;;;;;;;10.65;6.55;;;;;;;;;;5124048;27;20035;-73
2022/12/05 06:55:54;;;;;;;10.88;7.95;;;;;;;;;;5120094;27;20043;-73
2022/12/05 06:58:20;;;;;;;10.13;7.03;;;;;;;;;;5111172;27;20038;-73
2022/12/05 07:03:31;;;;;;;17.80;9.38;;;;;;;;;;5113575;27;20117;-72
2022/12/05 07:06:00;;;;;;;10.60;7.22;;;;;;;;;;5127320;27;20147;-72
2022/12/05 07:08:26;;;;;;;13.02;7.93;;;;;;;;;;5127594;27;20039;-73
2022/12/05 07:10:52;;;;;;;13.55;7.45;;;;;;;;;;5123797;27;20039;-73
2022/12/05 07:13:19;;;;;;;13.45;7.82;;;;;;;;;;5115654;27;20390;-73
2022/12/05 07:15:48;;;;;;;14.68;8.65;;;;;;;;;;5102988;27;20043;-73
2022/12/05 07:18:15;;;;;;;11.88;7.20;;;;;;;;;;5123461;27;20110;-73
2022/12/05 07:20:42;;;;;;;18.63;7.45;;;;;;;;;;5114068;27;20177;-73
2022/12/05 07:23:08;;;;;;;13.27;7.53;;;;;;;;;;5122555;27;20039;-73
2022/12/05 07:25:38;;;;;;;13.43;7.47;;;;;;;;;;5102313;28;20043;-73
2022/12/05 07:28:05;;;;;;;14.93;7.57;;;;;;;;;;5121557;27;20380;-72
2022/12/05 07:30:31;;;;;;;20.27;7.82;;;;;;;;;;5110881;27;20504;-72
2022/12/05 07:33:00;;;;;;;12.35;7.28;;;;;;;;;;5129422;27;20056;-73
2022/12/05 07:35:26;;;;;;;13.43;6.78;;;;;;;;;;5090734;28;20051;-73
2022/12/05 07:37:52;;;;;;;15.05;7.32;;;;;;;;;;5123820;27;20035;-73
2022/12/05 07:40:19;;;;;;;14.98;6.97;;;;;;;;;;5125463;27;20093;-72
2022/12/05 07:42:47;;;;;;;12.93;6.85;;;;;;;;;;5119706;27;20122;-73
2022/12/05 07:45:13;;;;;;;11.57;6.78;;;;;;;;;;5125474;27;20027;-73
2022/12/05 07:47:39;;;;;;;15.73;6.88;;;;;;;;;;5118146;27;20114;-72
2022/12/05 07:50:06;;;;;;;13.35;7.03;;;;;;;;;;5127131;27;20672;-73
2022/12/05 07:52:32;;;;;;;16.58;7.47;;;;;;;;;;5120854;27;20035;-73
2022/12/05 07:54:58;;;;;;;13.13;7.25;;;;;;;;;;5109296;28;20492;-72
2022/12/05 07:57:24;;;;;;;11.73;5.95;;;;;;;;;;5130780;28;20039;-73
2022/12/05 07:59:50;;;;;;;15.88;7.28;;;;;;;;;;5127009;28;20092;-73
2022/12/05 08:02:16;;;;;;;11.77;5.63;;;;;;;;;;5111006;28;20071;-73
2022/12/05 08:04:43;;;;;;;15.88;8.20;;;;;;;;;;5120873;28;20040;-72
2022/12/05 08:07:11;;;;;;;10.77;5.63;;;7.60;99.90;;;;;;5122096;28;20035;-73
2022/12/05 08:09:37;;;;;;;16.25;7.55;;;;;;;;;;5120209;28;20099;-73
2022/12/05 08:12:04;;;;;;;18.25;7.75;;;;;;;;;;5118210;28;20047;-73
2022/12/05 08:14:30;;;;;;;11.63;6.22;;;;;;;;;;5119002;28;20043;-73
2022/12/05 08:16:56;;;;;;;13.25;6.72;;;;;;;;;;5124383;28;20031;-72
2022/12/05 08:19:22;;;;;;;11.32;6.72;;;;;;;;;;5113629;28;20034;-73
2022/12/05 08:21:48;;;;;;;16.60;7.50;;;;;;;;;;5118588;28;20511;-73
2022/12/05 08:24:14;;;;;;;9.43;5.63;;;;;;;;;;5120352;28;20039;-73
2022/12/05 08:26:40;;;;;;;13.45;7.28;;;;;;;;;;5124674;28;20100;-73
2022/12/05 08:29:08;;;;;;;23.73;7.00;;;;;;;;;;5124657;28;20039;-73
2022/12/05 08:31:36;;;;;;;14.23;6.72;;;;;;;;;;5092019;28;20096;-73
2022/12/05 08:34:03;;;;;;;17.02;8.00;;;;;;;;;;5101108;28;20615;-73
2022/12/05 08:36:30;;;;;;;15.55;6.75;;;;;;;;;;5125724;28;20043;-72
2022/12/05 08:38:57;;;;;;;14.00;6.88;;;;;;;;;;5119819;28;20545;-73
2022/12/05 08:41:27;;;;;;;12.23;6.95;;;;;;;;;;5100254;28;20086;-73
2022/12/05 08:43:54;;;;;;;11.05;6.80;;;;;;;;;;5124302;28;20042;-73
2022/12/05 08:46:20;;;;;;;11.68;7.03;;;;;;;;;;5127313;28;20079;-73
2022/12/05 08:48:46;;;;;;;10.63;7.07;;;;;;;;;;5124891;28;20126;-73
2022/12/05 08:51:13;;;;;;;11.23;7.35;;;;;;;;;;5118331;28;20044;-73
2022/12/05 08:53:39;;;;;;;9.48;6.18;;;;;;;;;;5104550;28;20051;-73
2022/12/05 08:56:06;;;;;;;14.93;7.03;;;;;;;;;;5119271;28;20038;-73
2022/12/05 08:58:33;;;;;;;13.00;7.60;;;;;;;;;;5124653;28;20234;-73
2022/12/05 09:01:10;;;;;;;15.32;6.25;;;;;;;;;;5117941;28;20058;-73
2022/12/05 09:03:37;;;;;;;15.68;6.78;;;;;;;;;;5103676;28;20244;-73
2022/12/05 09:06:07;;;;;;;14.30;7.30;;;;;;;;;;5120582;27;20043;-73
2022/12/05 09:08:33;;;;;;;15.98;6.80;;;;;;;;;;5106933;27;20134;-73
2022/12/05 09:10:59;;;;;;;11.05;6.57;;;;;;;;;;5120991;27;20043;-73
2022/12/05 09:13:25;;;;;;;12.77;7.47;;;;;;;;;;5128651;27;20475;-73
2022/12/05 09:15:51;;;;;;;12.25;6.65;;;;;;;;;;5104022;27;20071;-73
2022/12/05 09:18:17;;;;;;;16.02;7.32;;;;;;;;;;5106792;27;20036;-72
2022/12/05 09:20:43;;;;;;;13.10;6.68;;;;;;;;;;5096975;28;20043;-73
2022/12/05 09:23:09;;;;;;;11.98;6.95;;;;;;;;;;5118607;27;20398;-73
2022/12/05 09:25:36;;;;;;;18.52;8.40;;;;;;;;;;5120826;27;20403;-72
2022/12/05 09:28:02;;;;;;;16.02;7.03;;;;;;;;;;5126039;27;20512;-72
2022/12/05 09:30:28;;;;;;;13.07;6.03;;;;;;;;;;5082718;27;20039;-73
2022/12/05 09:32:54;;;;;;;9.52;5.38;;;;;;;;;;5120035;27;20081;-73
2022/12/05 09:35:20;;;;;;;14.77;6.55;;;;;;;;;;5125074;27;20035;-73
2022/12/05 09:37:50;;;;;;;11.82;6.55;;;;;;;;;;5120268;27;20047;-73
2022/12/05 09:40:17;;;;;;;13.45;7.78;;;;;;;;;;5103563;27;20083;-70
2022/12/05 09:42:46;;;;;;;15.75;7.10;;;;;;;;;;5120122;27;20034;-72
2022/12/05 09:45:23;;;;;;;17.50;6.70;;;;;;;;;;5123325;27;20039;-73
2022/12/05 09:47:53;;;;;;;13.57;6.68;;;;;;;;;;5122353;27;20529;-72
2022/12/05 09:50:23;;;;;;;13.85;6.55;;;;;;;;;;5117117;27;20047;-72
2022/12/05 09:52:49;;;;;;;17.60;7.85;;;;;;;;;;5124953;27;20028;-72
2022/12/05 09:55:16;;;;;;;15.68;6.80;;;;;;;;;;5124220;27;20031;-73
2022/12/05 09:57:46;;;;;;;15.20;8.15;;;;;;;;;;5124553;27;20039;-73
2022/12/05 10:00:13;;;;;;;18.27;7.22;;;;;;;;;;5126821;27;20039;-71
2022/12/05 10:02:59;;;;;;;15.32;7.65;;;;;;;;;;5124481;27;20385;-72
2022/12/05 10:05:45;;;;;;;16.55;7.43;;;;;;;;;;5092648;27;20043;-72
2022/12/05 10:08:24;;;;;;;12.13;7.57;;;;;;;;;;5075213;27;20145;-72
2022/12/05 10:11:00;;;;;;;13.05;7.32;;;;;;;;;;5118630;27;20043;-73
2022/12/05 10:13:43;;;;;;;16.85;7.55;;;;;;;;;;5122583;27;20037;-73
2022/12/05 10:16:16;;;;;;;15.40;7.85;;;;;;;;;;5121028;27;20396;-73
2022/12/05 10:18:48;;;;;;;14.30;7.10;;;;;;;;;;5113086;27;20038;-72
2022/12/05 10:21:19;;;;;;;11.65;8.20;;;;;;;;;;5126087;27;20042;-73
2022/12/05 10:23:54;;;;;;;13.45;7.25;;;;;;;;;;5107753;27;20054;-73
2022/12/05 10:26:21;;;;;;;23.63;8.00;;;;;;;;;;5108217;27;20784;-72
2022/12/05 10:28:48;;;;;;;14.65;8.32;;;;;;;;;;5121066;27;20031;-72
2022/12/05 10:31:16;;;;;;;16.77;7.53;;;;;;;;;;5095334;27;20468;-73
2022/12/05 10:33:51;;;;;;;12.40;6.95;;;;;;;;;;5108010;27;20050;-73
2022/12/05 10:36:17;;;;;;;13.20;8.63;;;;;;;;;;5132663;27;20097;-72
2022/12/05 10:38:44;;;;;;;15.65;7.68;;;;;;;;;;5122494;27;20103;-72
2022/12/05 10:41:12;;;;;;;16.95;7.35;;;;;;;;;;5121010;27;20491;-72
2022/12/05 10:43:40;;;;;;;18.20;9.55;;;;;;;;;;5122429;27;20067;-72
2022/12/05 10:46:06;;;;;;;23.25;8.00;;;;;;;;;;5110483;27;20050;-72
2022/12/05 10:48:36;;;;;;;18.23;8.57;;;;;;;;;;5112306;27;20054;-72
2022/12/05 10:51:04;;;;;;;17.00;9.02;;;;;;;;;;5111997;27;20043;-72
2022/12/05 10:53:42;;;;;;;16.80;9.38;;;;;;;;;;5124825;27;20043;-72
2022/12/05 10:56:27;;;;;;;12.23;6.90;;;;;;;;;;5125255;27;20042;-72
2022/12/05 10:58:55;;;;;;;19.75;9.15;;;;;;;;;;5107618;27;20327;-72
2022/12/05 11:01:22;;;;;;;18.98;7.53;;;;;;;;;;5122035;27;20043;-72
2022/12/05 11:03:55;;;;;;;24.10;8.10;;;;;;;;;;5075349;27;20489;-72
2022/12/05 11:06:26;;;;;;;13.68;7.50;;;;;;;;;;5123825;27;20137;-72
2022/12/05 11:08:54;;;;;;;12.75;7.38;;;;;;;;;;5094631;27;20035;-73
2022/12/05 11:11:29;;;;;;;14.60;7.35;;;;;;;;;;5128180;27;20529;-72
2022/12/05 11:14:01;;;;;;;18.52;7.72;;;;;;;;;;5127651;27;20039;-73
2022/12/05 11:16:36;;;;;;;10.98;8.15;;;;;;;;;;5118997;27;20082;-73
2022/12/05 11:19:19;;;;;;;16.83;7.00;;;;;;;;;;5123498;27;20035;-72
2022/12/05 11:21:45;;;;;;;15.40;7.03;;;;;;;;;;5120626;27;20036;-73
2022/12/05 11:24:29;;;;;;;13.75;7.78;;;;;;;;;;5127034;27;20549;-73
2022/12/05 11:27:00;;;;;;;13.65;6.63;;;;;;;;;;5122688;27;20038;-73
2022/12/05 11:29:32;;;;;;;8.93;6.80;;;;;;;;;;5125247;27;20092;-73
2022/12/05 11:31:58;;;;;;;15.18;6.25;;;;;;;;;;5110040;27;20039;-71
2022/12/05 11:34:47;;;;;;;14.32;7.28;;;;;;;;;;5129337;27;20132;-73
2022/12/05 11:37:15;;;;;;;16.77;8.13;;;;;;;;;;5115256;27;20508;-73
2022/12/05 11:39:41;;;;;;;17.95;8.52;;;;;;;;;;5107500;27;20048;-72
2022/12/05 11:42:19;;;;;;;13.73;8.32;;;;;;;;;;5120306;27;20032;-73
2022/12/05 11:44:51;;;;;;;17.15;7.47;;;;;;;;;;5107442;28;20043;-73
2022/12/05 11:47:17;;;;;;;18.75;9.18;;;;;;;;;;5120655;27;20121;-72
2022/12/05 11:49:43;;;;;;;15.18;7.75;;;;;;;;;;5120726;27;20126;-73
2022/12/05 11:52:15;;;;;;;13.38;7.80;;;;;;;;;;5123081;27;20080;-72
2022/12/05 11:54:47;;;;;;;19.95;7.65;;;;;;;;;;5126001;27;20120;-73
2022/12/05 11:57:23;;;;;;;14.52;7.28;;;;;;;;;;5126446;27;20035;-73
2022/12/05 11:59:58;;;;;;;17.40;7.50;;;;;;;;;;5120974;28;20076;-73
2022/12/05 12:02:42;;;;;;;16.80;8.18;;;;;;;;;;5118690;28;20050;-73
2022/12/05 12:05:16;;;;;;;12.70;7.32;;;;;;;;;;5124691;28;20061;-72
2022/12/05 12:07:58;;;;;;;17.48;9.60;;;;;;;;;;5115927;28;20039;-73
2022/12/05 12:10:37;;;;;;;26.15;8.98;;;;;;;;;;5101651;28;20122;-73
2022/12/05 12:13:12;;;;;;;15.43;8.20;;;;;;;;;;5104635;28;20050;-73
2022/12/05 12:15:58;;;;;;;15.68;7.15;;;;;;;;;;5107252;28;20066;-73
2022/12/05 12:18:30;;;;;;;13.43;6.82;;;;;;;;;;5119351;28;20043;-72
2022/12/05 12:20:56;;;;;;;9.35;6.28;;;;;;;;;;5106993;28;20504;-72
2022/12/05 12:23:34;;;;;;;11.50;6.15;;;;;;;;;;5126582;28;20035;-73
2022/12/05 12:26:01;;;;;;;16.95;6.20;;;;;;;;;;5124562;28;20066;-73
2022/12/05 12:28:28;;;;;;;11.85;5.50;;;;;;;;;;5122806;28;20866;-73
2022/12/05 12:31:03;;;;;;;13.27;5.88;;;;;;;;;;5115406;28;20525;-73
2022/12/05 12:33:29;;;;;;;10.25;6.13;;;;;;;;;;5100641;28;20400;-72
2022/12/05 12:36:00;;;;;;;10.70;6.10;;;;;;;;;;5122235;28;20196;-73
2022/12/05 12:38:32;;;;;;;16.15;7.05;;;;;;;;;;5120942;28;20134;-73
2022/12/05 12:41:13;;;;;;;10.90;5.95;;;;;;;;;;5129437;27;20031;-73
2022/12/05 12:43:51;;;;;;;14.23;5.60;;;;;;;;;;5127483;27;20400;-72
2022/12/05 12:46:29;;;;;;;13.32;6.40;;;;;;;;;;5113713;27;20043;-73
2022/12/05 12:48:55;;;;;;;15.35;5.30;;;;;;;;;;5129687;27;20039;-72
2022/12/05 12:51:22;;;;;;;10.95;5.65;;;;;;;;;;5121611;27;20035;-73
2022/12/05 12:53:51;;;;;;;11.30;5.03;;;;;;;;;;5110008;28;20039;-73
2022/12/05 12:56:18;;;;;;;9.68;5.72;;;;;;;;;;5125344;27;20036;-73
2022/12/05 12:58:47;;;;;;;12.15;4.70;;;;;;;;;;5127664;27;20043;-72
2022/12/05 13:01:13;;;;;;;12.80;5.72;;;;;;;;;;5128536;27;20039;-73
2022/12/05 13:03:39;;;;;;;10.15;4.88;;;;;;;;;;5125235;27;20047;-73
2022/12/05 13:06:13;;;;;;;12.63;5.03;;;;;;;;;;5106562;27;20123;-73
2022/12/05 13:08:59;;;;;;;7.63;4.38;;;;;;;;;;5128498;27;20031;-73
2022/12/05 13:11:28;;;;;;;6.55;3.88;;;;;;;;;;5108818;27;20067;-73
2022/12/05 13:13:56;;;;;;;6.78;4.05;;;;;;;;;;5124625;27;20130;-73
2022/12/05 13:16:33;;;;;;;6.70;3.97;;;;;;;;;;5123326;27;20070;-73
2022/12/05 13:19:00;;;;;;;8.45;4.43;;;;;;;;;;5122205;27;20049;-70
2022/12/05 13:21:27;;;;;;;7.63;4.53;;;;;;;;;;5126654;27;20031;-73
2022/12/05 13:23:55;;;;;;;9.32;4.90;;;;;;;;;;5112258;27;20522;-73
2022/12/05 13:26:22;;;;;;;8.68;3.90;;;;;;;;;;5127910;27;20106;-73
2022/12/05 13:28:48;;;;;;;6.43;3.92;;;;;;;;;;5109089;27;20052;-74
2022/12/05 13:31:16;;;;;;;8.27;4.50;;;;;;;;;;5120684;27;20047;-73
2022/12/05 13:33:50;;;;;;;10.13;3.80;;;;;;;;;;5122295;27;20057;-72
2022/12/05 13:44:44;;;;;;;6.75;2.90;;;;;;;;;;5115553;27;20069;-72
2022/12/05 13:47:28;;;;;;;5.85;3.10;;;;;;;;;;5121187;27;20031;-73
2022/12/05 13:50:02;;;;;;;3.80;2.88;;;;;;;;;;5103679;27;20118;-72
2022/12/05 13:52:32;;;;;;;7.03;3.42;;;;;;;;;;5118177;27;20042;-73
2022/12/05 13:55:05;;;;;;;7.13;2.72;;;;;;;;;;5126751;27;20108;-72
2022/12/05 13:57:37;;;;;;;9.38;3.00;;;;;;;;;;5129610;27;20027;-72
2022/12/05 14:00:09;;;;;;;4.95;3.10;;;;;;;;;;5126335;27;20088;-72
2022/12/05 14:02:42;;;;;;;4.88;2.90;;;;;;;;;;5126283;27;20042;-72
2022/12/05 14:05:18;;;;;;;5.30;2.95;;;;;;;;;;5114632;27;20502;-72
2022/12/05 14:07:48;;;;;;;11.10;4.10;;;;;;;;;;5115905;27;20459;-72
2022/12/05 14:10:21;;;;;;;4.75;3.30;;;;;;;;;;5107336;27;20122;-72
2022/12/05 14:12:58;;;;;;;5.13;3.28;;;;;;;;;;5120135;27;20067;-74
2022/12/05 14:15:41;;;;;;;5.55;3.25;;;;;;;;;;5113216;27;20040;-72
2022/12/05 14:18:07;;;;;;;;;;;;;;;;;;5122621;27;20402;-72
2022/12/05 14:20:36;;;;;;;5.93;2.58;;;;;;;;;;5091669;28;20843;-72
2022/12/05 14:23:05;;;;;;;6.55;2.88;;;;;;;;;;5120230;27;20111;-72
2022/12/05 14:25:40;;;;;;;5.20;3.35;;;;;;;;;;5114912;27;20042;-72
2022/12/05 14:28:06;;;;;;;5.30;3.17;;;;;;;;;;5101172;27;20103;-71
2022/12/05 14:30:55;;;;;;;8.55;3.92;;;;;;;;;;5119983;27;20031;-72
2022/12/05 14:33:22;;;;;;;6.38;3.33;;;;;;;;;;5102135;27;20047;-69
2022/12/05 14:35:50;;;;;;;6.70;3.20;;;;;;;;;;5121509;27;20103;-72
2022/12/05 14:38:33;;;;;;;6.82;4.13;;;;;;;;;;5119519;27;20072;-71
2022/12/05 14:41:12;;;;;;;5.75;3.50;;;;;;;;;;5119239;27;20057;-72
2022/12/05 14:43:38;;;;;;;5.80;3.80;;;;;;;;;;5097335;27;20048;-72
2022/12/05 14:46:07;;;;;;;8.88;3.80;;;;;;;;;;5116974;27;20045;-72
2022/12/05 14:48:35;;;;;;;7.65;3.60;;;;;;;;;;5112070;27;20043;-72
2022/12/05 14:51:05;;;;;;;7.03;3.30;;;;;;;;;;5112643;27;20035;-72
2022/12/05 14:53:33;;;;;;;5.20;3.13;;;;;;;;;;5107556;27;20083;-72
2022/12/05 14:56:00;;;;;;;6.38;3.75;;;;;;;;;;5110057;27;20074;-72
2022/12/05 14:58:35;;;;;;;7.63;4.32;;;;;;;;;;5116588;27;20038;-72
2022/12/05 15:01:27;;;;;;;7.65;3.67;;;;;;;;;;5116605;27;20045;-72